sensor_id;sensor_type;location;lat;lon;timestamp;P1;durP1;ratioP1;P2;durP2;ratioP2
78555;SDS011;67851;51.354;7.744;2024-01-11T00:02:01;84.90;;;31.50;;
78555;SDS011;67851;51.354;7.744;2024-01-11T00:04:28;59.35;;;25.92;;
78555;SDS011;67851;51.354;7.744;2024-01-11T00:06:55;69.13;;;26.85;;
78555;SDS011;67851;51.354;7.744;2024-01-11T00:09:21;69.95;;;27.85;;
78555;SDS011;67851;51.354;7.744;2024-01-11T00:11:49;81.90;;;30.10;;
78555;SDS011;67851;51.354;7.744;2024-01-11T00:14:16;89.57;;;31.45;;
78555;SDS011;67851;51.354;7.744;2024-01-11T00:16:44;88.90;;;32.67;;
78555;SDS011;67851;51.354;7.744;2024-01-11T00:19:11;82.05;;;32.78;;
78555;SDS011;67851;51.354;7.744;2024-01-11T00:21:38;85.00;;;29.08;;
78555;SDS011;67851;51.354;7.744;2024-01-11T00:24:07;79.25;;;31.73;;
78555;SDS011;67851;51.354;7.744;2024-01-11T00:26:34;87.38;;;34.47;;
78555;SDS011;67851;51.354;7.744;2024-01-11T00:29:02;90.80;;;33.95;;
78555;SDS011;67851;51.354;7.744;2024-01-11T00:31:29;72.60;;;27.20;;
78555;SDS011;67851;51.354;7.744;2024-01-11T00:33:56;70.50;;;28.45;;
78555;SDS011;67851;51.354;7.744;2024-01-11T00:36:22;73.28;;;30.88;;
78555;SDS011;67851;51.354;7.744;2024-01-11T00:38:50;70.60;;;28.80;;
78555;SDS011;67851;51.354;7.744;2024-01-11T00:41:16;72.32;;;29.95;;
78555;SDS011;67851;51.354;7.744;2024-01-11T00:43:43;62.78;;;24.67;;
78555;SDS011;67851;51.354;7.744;2024-01-11T00:46:10;73.38;;;27.58;;
78555;SDS011;67851;51.354;7.744;2024-01-11T00:48:38;56.08;;;24.50;;
78555;SDS011;67851;51.354;7.744;2024-01-11T00:51:07;60.30;;;22.63;;
78555;SDS011;67851;51.354;7.744;2024-01-11T00:53:33;56.38;;;22.08;;
78555;SDS011;67851;51.354;7.744;2024-01-11T00:56:00;77.18;;;27.95;;
78555;SDS011;67851;51.354;7.744;2024-01-11T00:58:27;60.25;;;23.58;;
78555;SDS011;67851;51.354;7.744;2024-01-11T01:00:54;60.90;;;23.92;;
78555;SDS011;67851;51.354;7.744;2024-01-11T01:03:21;71.63;;;28.92;;
78555;SDS011;67851;51.354;7.744;2024-01-11T01:05:50;58.28;;;23.02;;
78555;SDS011;67851;51.354;7.744;2024-01-11T01:08:17;50.58;;;21.23;;
78555;SDS011;67851;51.354;7.744;2024-01-11T01:10:44;46.00;;;19.60;;
78555;SDS011;67851;51.354;7.744;2024-01-11T01:13:11;51.58;;;20.92;;
78555;SDS011;67851;51.354;7.744;2024-01-11T01:15:38;47.80;;;21.52;;
78555;SDS011;67851;51.354;7.744;2024-01-11T01:18:06;49.85;;;20.58;;
78555;SDS011;67851;51.354;7.744;2024-01-11T01:20:33;47.42;;;19.60;;
78555;SDS011;67851;51.354;7.744;2024-01-11T01:22:59;44.75;;;18.48;;
78555;SDS011;67851;51.354;7.744;2024-01-11T01:25:26;48.92;;;20.27;;
78555;SDS011;67851;51.354;7.744;2024-01-11T01:27:54;47.65;;;17.92;;
78555;SDS011;67851;51.354;7.744;2024-01-11T01:30:22;43.67;;;18.80;;
78555;SDS011;67851;51.354;7.744;2024-01-11T01:32:49;48.25;;;18.40;;
78555;SDS011;67851;51.354;7.744;2024-01-11T01:35:17;44.67;;;19.45;;
78555;SDS011;67851;51.354;7.744;2024-01-11T01:37:44;45.75;;;19.38;;
78555;SDS011;67851;51.354;7.744;2024-01-11T01:40:11;48.30;;;15.98;;
78555;SDS011;67851;51.354;7.744;2024-01-11T01:42:42;44.75;;;17.60;;
78555;SDS011;67851;51.354;7.744;2024-01-11T01:45:10;42.70;;;17.92;;
78555;SDS011;67851;51.354;7.744;2024-01-11T01:47:40;55.58;;;18.75;;
78555;SDS011;67851;51.354;7.744;2024-01-11T01:50:08;42.58;;;18.20;;
78555;SDS011;67851;51.354;7.744;2024-01-11T01:52:38;35.58;;;16.42;;
78555;SDS011;67851;51.354;7.744;2024-01-11T01:55:06;41.03;;;17.65;;
78555;SDS011;67851;51.354;7.744;2024-01-11T01:57:36;37.65;;;15.98;;
78555;SDS011;67851;51.354;7.744;2024-01-11T02:00:03;39.97;;;16.20;;
78555;SDS011;67851;51.354;7.744;2024-01-11T02:02:36;41.58;;;15.25;;
78555;SDS011;67851;51.354;7.744;2024-01-11T02:05:05;43.25;;;16.77;;
78555;SDS011;67851;51.354;7.744;2024-01-11T02:07:32;41.33;;;13.88;;
78555;SDS011;67851;51.354;7.744;2024-01-11T02:09:58;43.45;;;19.08;;
78555;SDS011;67851;51.354;7.744;2024-01-11T02:12:26;41.53;;;18.35;;
78555;SDS011;67851;51.354;7.744;2024-01-11T02:14:53;62.80;;;25.17;;
78555;SDS011;67851;51.354;7.744;2024-01-11T02:17:19;60.75;;;24.05;;
78555;SDS011;67851;51.354;7.744;2024-01-11T02:19:46;39.58;;;17.75;;
78555;SDS011;67851;51.354;7.744;2024-01-11T02:22:24;32.75;;;13.57;;
78555;SDS011;67851;51.354;7.744;2024-01-11T02:24:55;33.10;;;14.57;;
78555;SDS011;67851;51.354;7.744;2024-01-11T02:27:23;35.30;;;17.00;;
78555;SDS011;67851;51.354;7.744;2024-01-11T02:29:50;39.17;;;16.42;;
78555;SDS011;67851;51.354;7.744;2024-01-11T02:32:16;38.90;;;15.30;;
78555;SDS011;67851;51.354;7.744;2024-01-11T02:34:43;27.90;;;13.43;;
78555;SDS011;67851;51.354;7.744;2024-01-11T02:37:10;33.55;;;15.15;;
78555;SDS011;67851;51.354;7.744;2024-01-11T02:39:37;38.13;;;14.32;;
78555;SDS011;67851;51.354;7.744;2024-01-11T02:42:04;29.05;;;13.23;;
78555;SDS011;67851;51.354;7.744;2024-01-11T02:44:31;30.13;;;12.73;;
78555;SDS011;67851;51.354;7.744;2024-01-11T02:46:58;33.72;;;13.82;;
78555;SDS011;67851;51.354;7.744;2024-01-11T02:49:25;31.70;;;12.50;;
78555;SDS011;67851;51.354;7.744;2024-01-11T02:51:51;29.80;;;12.88;;
78555;SDS011;67851;51.354;7.744;2024-01-11T02:54:19;30.88;;;13.15;;
78555;SDS011;67851;51.354;7.744;2024-01-11T02:56:45;25.58;;;11.15;;
78555;SDS011;67851;51.354;7.744;2024-01-11T02:59:12;28.98;;;13.20;;
78555;SDS011;67851;51.354;7.744;2024-01-11T03:01:38;28.52;;;11.73;;
78555;SDS011;67851;51.354;7.744;2024-01-11T03:04:05;29.75;;;13.15;;
78555;SDS011;67851;51.354;7.744;2024-01-11T03:06:32;25.27;;;12.00;;
78555;SDS011;67851;51.354;7.744;2024-01-11T03:08:59;28.48;;;11.75;;
78555;SDS011;67851;51.354;7.744;2024-01-11T03:11:25;26.98;;;12.45;;
78555;SDS011;67851;51.354;7.744;2024-01-11T03:13:52;27.75;;;11.80;;
78555;SDS011;67851;51.354;7.744;2024-01-11T03:16:19;33.35;;;12.48;;
78555;SDS011;67851;51.354;7.744;2024-01-11T03:18:46;29.27;;;10.75;;
78555;SDS011;67851;51.354;7.744;2024-01-11T03:21:12;29.02;;;11.70;;
78555;SDS011;67851;51.354;7.744;2024-01-11T03:23:41;28.52;;;11.98;;
78555;SDS011;67851;51.354;7.744;2024-01-11T03:26:12;35.47;;;15.45;;
78555;SDS011;67851;51.354;7.744;2024-01-11T03:28:42;30.60;;;13.73;;
78555;SDS011;67851;51.354;7.744;2024-01-11T03:31:11;29.63;;;13.55;;
78555;SDS011;67851;51.354;7.744;2024-01-11T03:33:38;28.60;;;13.25;;
78555;SDS011;67851;51.354;7.744;2024-01-11T03:36:06;29.80;;;13.98;;
78555;SDS011;67851;51.354;7.744;2024-01-11T03:38:34;27.02;;;12.98;;
78555;SDS011;67851;51.354;7.744;2024-01-11T03:41:01;32.22;;;13.77;;
78555;SDS011;67851;51.354;7.744;2024-01-11T03:43:28;30.23;;;12.75;;
78555;SDS011;67851;51.354;7.744;2024-01-11T03:45:55;26.83;;;11.68;;
78555;SDS011;67851;51.354;7.744;2024-01-11T03:48:23;29.20;;;12.75;;
78555;SDS011;67851;51.354;7.744;2024-01-11T03:50:50;33.15;;;12.60;;
78555;SDS011;67851;51.354;7.744;2024-01-11T03:53:17;31.50;;;12.95;;
78555;SDS011;67851;51.354;7.744;2024-01-11T03:55:43;31.77;;;13.50;;
78555;SDS011;67851;51.354;7.744;2024-01-11T03:58:10;29.63;;;13.38;;
78555;SDS011;67851;51.354;7.744;2024-01-11T04:00:37;35.42;;;12.13;;
78555;SDS011;67851;51.354;7.744;2024-01-11T04:03:05;32.10;;;13.63;;
78555;SDS011;67851;51.354;7.744;2024-01-11T04:05:32;36.92;;;13.23;;
78555;SDS011;67851;51.354;7.744;2024-01-11T04:07:59;31.23;;;13.63;;
78555;SDS011;67851;51.354;7.744;2024-01-11T04:10:26;34.30;;;14.95;;
78555;SDS011;67851;51.354;7.744;2024-01-11T04:12:53;38.58;;;12.85;;
78555;SDS011;67851;51.354;7.744;2024-01-11T04:15:19;30.75;;;12.57;;
78555;SDS011;67851;51.354;7.744;2024-01-11T04:17:46;35.08;;;13.02;;
78555;SDS011;67851;51.354;7.744;2024-01-11T04:20:14;31.13;;;13.77;;
78555;SDS011;67851;51.354;7.744;2024-01-11T04:22:41;26.70;;;11.80;;
78555;SDS011;67851;51.354;7.744;2024-01-11T04:25:09;33.95;;;13.45;;
78555;SDS011;67851;51.354;7.744;2024-01-11T04:27:36;28.50;;;12.93;;
78555;SDS011;67851;51.354;7.744;2024-01-11T04:30:03;28.25;;;13.02;;
78555;SDS011;67851;51.354;7.744;2024-01-11T04:32:31;31.45;;;12.93;;
78555;SDS011;67851;51.354;7.744;2024-01-11T04:34:58;32.95;;;13.60;;
78555;SDS011;67851;51.354;7.744;2024-01-11T04:37:25;34.72;;;13.52;;
78555;SDS011;67851;51.354;7.744;2024-01-11T04:39:52;37.45;;;14.60;;
78555;SDS011;67851;51.354;7.744;2024-01-11T04:42:19;32.65;;;13.55;;
78555;SDS011;67851;51.354;7.744;2024-01-11T04:44:46;32.40;;;14.07;;
78555;SDS011;67851;51.354;7.744;2024-01-11T04:47:12;34.30;;;15.00;;
78555;SDS011;67851;51.354;7.744;2024-01-11T04:49:42;41.40;;;16.63;;
78555;SDS011;67851;51.354;7.744;2024-01-11T04:52:08;44.08;;;15.27;;
78555;SDS011;67851;51.354;7.744;2024-01-11T04:54:35;36.53;;;14.27;;
78555;SDS011;67851;51.354;7.744;2024-01-11T04:57:02;32.53;;;14.13;;
78555;SDS011;67851;51.354;7.744;2024-01-11T04:59:30;37.90;;;15.57;;
78555;SDS011;67851;51.354;7.744;2024-01-11T05:01:57;31.88;;;14.52;;
78555;SDS011;67851;51.354;7.744;2024-01-11T05:04:23;37.53;;;14.65;;
78555;SDS011;67851;51.354;7.744;2024-01-11T05:06:51;35.15;;;15.25;;
78555;SDS011;67851;51.354;7.744;2024-01-11T05:09:18;38.58;;;14.52;;
78555;SDS011;67851;51.354;7.744;2024-01-11T05:11:44;33.67;;;15.45;;
78555;SDS011;67851;51.354;7.744;2024-01-11T05:14:11;40.20;;;15.73;;
78555;SDS011;67851;51.354;7.744;2024-01-11T05:16:38;33.55;;;13.43;;
78555;SDS011;67851;51.354;7.744;2024-01-11T05:19:05;42.85;;;15.75;;
78555;SDS011;67851;51.354;7.744;2024-01-11T05:21:34;38.22;;;14.43;;
78555;SDS011;67851;51.354;7.744;2024-01-11T05:24:02;37.78;;;15.77;;
78555;SDS011;67851;51.354;7.744;2024-01-11T05:26:37;38.58;;;16.60;;
78555;SDS011;67851;51.354;7.744;2024-01-11T05:29:03;39.60;;;15.02;;
78555;SDS011;67851;51.354;7.744;2024-01-11T05:31:33;38.03;;;14.82;;
78555;SDS011;67851;51.354;7.744;2024-01-11T05:34:00;36.45;;;14.60;;
78555;SDS011;67851;51.354;7.744;2024-01-11T05:36:32;35.75;;;14.13;;
78555;SDS011;67851;51.354;7.744;2024-01-11T05:38:58;33.05;;;14.05;;
78555;SDS011;67851;51.354;7.744;2024-01-11T05:41:25;31.67;;;13.57;;
78555;SDS011;67851;51.354;7.744;2024-01-11T05:43:52;31.13;;;13.13;;
78555;SDS011;67851;51.354;7.744;2024-01-11T05:46:19;32.28;;;12.85;;
78555;SDS011;67851;51.354;7.744;2024-01-11T05:48:46;33.17;;;14.68;;
78555;SDS011;67851;51.354;7.744;2024-01-11T05:51:13;33.15;;;14.05;;
78555;SDS011;67851;51.354;7.744;2024-01-11T05:53:40;34.17;;;13.75;;
78555;SDS011;67851;51.354;7.744;2024-01-11T05:56:07;35.33;;;14.25;;
78555;SDS011;67851;51.354;7.744;2024-01-11T05:58:38;32.58;;;14.23;;
78555;SDS011;67851;51.354;7.744;2024-01-11T06:01:05;36.22;;;16.73;;
78555;SDS011;67851;51.354;7.744;2024-01-11T06:03:32;33.47;;;16.30;;
78555;SDS011;67851;51.354;7.744;2024-01-11T06:06:02;38.30;;;15.70;;
78555;SDS011;67851;51.354;7.744;2024-01-11T06:08:30;33.63;;;15.07;;
78555;SDS011;67851;51.354;7.744;2024-01-11T06:10:57;35.28;;;16.00;;
78555;SDS011;67851;51.354;7.744;2024-01-11T06:13:24;40.67;;;15.55;;
78555;SDS011;67851;51.354;7.744;2024-01-11T06:15:52;42.47;;;16.20;;
78555;SDS011;67851;51.354;7.744;2024-01-11T06:18:19;57.17;;;15.60;;
78555;SDS011;67851;51.354;7.744;2024-01-11T06:20:46;37.50;;;16.70;;
78555;SDS011;67851;51.354;7.744;2024-01-11T06:23:15;34.60;;;16.05;;
78555;SDS011;67851;51.354;7.744;2024-01-11T06:25:43;35.00;;;15.05;;
78555;SDS011;67851;51.354;7.744;2024-01-11T06:28:12;32.35;;;15.05;;
78555;SDS011;67851;51.354;7.744;2024-01-11T06:30:40;35.30;;;14.60;;
78555;SDS011;67851;51.354;7.744;2024-01-11T06:33:07;37.42;;;15.77;;
78555;SDS011;67851;51.354;7.744;2024-01-11T06:35:34;35.13;;;15.98;;
78555;SDS011;67851;51.354;7.744;2024-01-11T06:38:01;37.70;;;15.80;;
78555;SDS011;67851;51.354;7.744;2024-01-11T06:40:27;32.92;;;15.32;;
78555;SDS011;67851;51.354;7.744;2024-01-11T06:42:55;36.30;;;14.30;;
78555;SDS011;67851;51.354;7.744;2024-01-11T06:45:22;36.22;;;15.95;;
78555;SDS011;67851;51.354;7.744;2024-01-11T06:47:49;42.15;;;18.25;;
78555;SDS011;67851;51.354;7.744;2024-01-11T06:50:16;37.70;;;15.77;;
78555;SDS011;67851;51.354;7.744;2024-01-11T06:52:47;42.33;;;16.33;;
78555;SDS011;67851;51.354;7.744;2024-01-11T06:55:14;34.03;;;15.15;;
78555;SDS011;67851;51.354;7.744;2024-01-11T06:57:41;36.33;;;15.90;;
78555;SDS011;67851;51.354;7.744;2024-01-11T07:00:08;37.72;;;14.98;;
78555;SDS011;67851;51.354;7.744;2024-01-11T07:02:35;33.80;;;14.10;;
78555;SDS011;67851;51.354;7.744;2024-01-11T07:05:02;32.53;;;13.90;;
78555;SDS011;67851;51.354;7.744;2024-01-11T07:07:30;27.48;;;13.70;;
78555;SDS011;67851;51.354;7.744;2024-01-11T07:09:56;34.20;;;14.27;;
78555;SDS011;67851;51.354;7.744;2024-01-11T07:12:23;38.17;;;14.38;;
78555;SDS011;67851;51.354;7.744;2024-01-11T07:14:51;34.38;;;13.98;;
78555;SDS011;67851;51.354;7.744;2024-01-11T07:17:18;32.55;;;13.05;;
78555;SDS011;67851;51.354;7.744;2024-01-11T07:19:44;33.60;;;12.98;;
78555;SDS011;67851;51.354;7.744;2024-01-11T07:22:11;38.65;;;14.35;;
78555;SDS011;67851;51.354;7.744;2024-01-11T07:24:38;34.55;;;15.02;;
78555;SDS011;67851;51.354;7.744;2024-01-11T07:27:05;37.65;;;15.30;;
78555;SDS011;67851;51.354;7.744;2024-01-11T07:29:33;30.48;;;13.35;;
78555;SDS011;67851;51.354;7.744;2024-01-11T07:32:00;32.08;;;14.88;;
78555;SDS011;67851;51.354;7.744;2024-01-11T07:34:30;32.75;;;13.35;;
78555;SDS011;67851;51.354;7.744;2024-01-11T07:36:57;32.97;;;14.60;;
78555;SDS011;67851;51.354;7.744;2024-01-11T07:39:24;30.63;;;13.45;;
78555;SDS011;67851;51.354;7.744;2024-01-11T07:41:50;30.83;;;13.88;;
78555;SDS011;67851;51.354;7.744;2024-01-11T07:44:19;27.35;;;12.10;;
78555;SDS011;67851;51.354;7.744;2024-01-11T07:46:47;31.65;;;13.35;;
78555;SDS011;67851;51.354;7.744;2024-01-11T07:49:20;29.42;;;12.82;;
78555;SDS011;67851;51.354;7.744;2024-01-11T07:51:47;29.40;;;12.18;;
78555;SDS011;67851;51.354;7.744;2024-01-11T07:54:14;26.05;;;10.63;;
78555;SDS011;67851;51.354;7.744;2024-01-11T07:56:41;26.63;;;11.88;;
78555;SDS011;67851;51.354;7.744;2024-01-11T07:59:08;25.63;;;12.55;;
78555;SDS011;67851;51.354;7.744;2024-01-11T08:01:40;23.40;;;12.32;;
78555;SDS011;67851;51.354;7.744;2024-01-11T08:04:07;23.10;;;11.40;;
78555;SDS011;67851;51.354;7.744;2024-01-11T08:06:36;27.92;;;12.35;;
78555;SDS011;67851;51.354;7.744;2024-01-11T08:09:04;24.80;;;11.70;;
78555;SDS011;67851;51.354;7.744;2024-01-11T08:11:32;22.52;;;11.27;;
78555;SDS011;67851;51.354;7.744;2024-01-11T08:14:03;24.98;;;11.65;;
78555;SDS011;67851;51.354;7.744;2024-01-11T08:16:31;26.50;;;12.05;;
78555;SDS011;67851;51.354;7.744;2024-01-11T08:18:58;25.63;;;12.23;;
78555;SDS011;67851;51.354;7.744;2024-01-11T08:21:27;25.15;;;13.57;;
78555;SDS011;67851;51.354;7.744;2024-01-11T08:23:54;27.17;;;13.80;;
78555;SDS011;67851;51.354;7.744;2024-01-11T08:26:24;26.42;;;14.20;;
78555;SDS011;67851;51.354;7.744;2024-01-11T08:28:51;22.27;;;12.88;;
78555;SDS011;67851;51.354;7.744;2024-01-11T08:31:18;19.20;;;10.00;;
78555;SDS011;67851;51.354;7.744;2024-01-11T08:33:45;27.15;;;13.32;;
78555;SDS011;67851;51.354;7.744;2024-01-11T08:36:12;27.35;;;13.55;;
78555;SDS011;67851;51.354;7.744;2024-01-11T08:38:39;21.50;;;10.52;;
78555;SDS011;67851;51.354;7.744;2024-01-11T08:41:07;24.10;;;12.55;;
78555;SDS011;67851;51.354;7.744;2024-01-11T08:43:34;26.25;;;13.77;;
78555;SDS011;67851;51.354;7.744;2024-01-11T08:46:01;21.67;;;11.32;;
78555;SDS011;67851;51.354;7.744;2024-01-11T08:48:29;29.58;;;14.27;;
78555;SDS011;67851;51.354;7.744;2024-01-11T08:50:56;24.00;;;11.05;;
78555;SDS011;67851;51.354;7.744;2024-01-11T08:53:23;18.27;;;8.82;;
78555;SDS011;67851;51.354;7.744;2024-01-11T08:55:50;24.83;;;10.65;;
78555;SDS011;67851;51.354;7.744;2024-01-11T08:58:18;20.77;;;10.57;;
78555;SDS011;67851;51.354;7.744;2024-01-11T09:00:44;32.60;;;16.40;;
78555;SDS011;67851;51.354;7.744;2024-01-11T09:03:11;44.63;;;22.77;;
78555;SDS011;67851;51.354;7.744;2024-01-11T09:05:40;32.95;;;18.13;;
78555;SDS011;67851;51.354;7.744;2024-01-11T09:08:07;31.83;;;16.58;;
78555;SDS011;67851;51.354;7.744;2024-01-11T09:10:34;21.83;;;11.65;;
78555;SDS011;67851;51.354;7.744;2024-01-11T09:13:01;27.10;;;12.70;;
78555;SDS011;67851;51.354;7.744;2024-01-11T09:15:28;20.40;;;11.20;;
78555;SDS011;67851;51.354;7.744;2024-01-11T09:17:56;25.83;;;12.32;;
78555;SDS011;67851;51.354;7.744;2024-01-11T09:20:24;24.45;;;13.73;;
78555;SDS011;67851;51.354;7.744;2024-01-11T09:22:51;24.90;;;11.45;;
78555;SDS011;67851;51.354;7.744;2024-01-11T09:25:17;26.38;;;11.30;;
78555;SDS011;67851;51.354;7.744;2024-01-11T09:27:44;22.83;;;11.82;;
78555;SDS011;67851;51.354;7.744;2024-01-11T09:30:11;26.33;;;14.05;;
78555;SDS011;67851;51.354;7.744;2024-01-11T09:32:38;23.35;;;12.77;;
78555;SDS011;67851;51.354;7.744;2024-01-11T09:35:05;46.20;;;23.80;;
78555;SDS011;67851;51.354;7.744;2024-01-11T09:37:32;63.30;;;37.80;;
78555;SDS011;67851;51.354;7.744;2024-01-11T09:39:59;27.75;;;14.43;;
78555;SDS011;67851;51.354;7.744;2024-01-11T09:42:30;60.65;;;39.17;;
78555;SDS011;67851;51.354;7.744;2024-01-11T09:44:57;45.67;;;29.77;;
78555;SDS011;67851;51.354;7.744;2024-01-11T09:47:24;30.33;;;18.60;;
78555;SDS011;67851;51.354;7.744;2024-01-11T09:49:53;27.08;;;15.60;;
78555;SDS011;67851;51.354;7.744;2024-01-11T09:52:21;29.08;;;14.52;;
78555;SDS011;67851;51.354;7.744;2024-01-11T09:54:48;24.10;;;13.05;;
78555;SDS011;67851;51.354;7.744;2024-01-11T09:57:16;23.33;;;12.77;;
78555;SDS011;67851;51.354;7.744;2024-01-11T09:59:49;22.42;;;13.07;;
78555;SDS011;67851;51.354;7.744;2024-01-11T10:02:17;22.17;;;11.32;;
78555;SDS011;67851;51.354;7.744;2024-01-11T10:04:46;20.95;;;11.73;;
78555;SDS011;67851;51.354;7.744;2024-01-11T10:07:13;18.67;;;11.48;;
78555;SDS011;67851;51.354;7.744;2024-01-11T10:09:41;23.80;;;13.10;;
78555;SDS011;67851;51.354;7.744;2024-01-11T10:12:08;24.60;;;14.68;;
78555;SDS011;67851;51.354;7.744;2024-01-11T10:14:35;24.55;;;13.80;;
78555;SDS011;67851;51.354;7.744;2024-01-11T10:17:02;23.83;;;13.57;;
78555;SDS011;67851;51.354;7.744;2024-01-11T10:19:30;27.02;;;15.32;;
78555;SDS011;67851;51.354;7.744;2024-01-11T10:21:57;30.40;;;14.45;;
78555;SDS011;67851;51.354;7.744;2024-01-11T10:24:24;26.33;;;15.25;;
78555;SDS011;67851;51.354;7.744;2024-01-11T10:26:58;26.17;;;15.48;;
78555;SDS011;67851;51.354;7.744;2024-01-11T10:29:30;31.73;;;17.70;;
78555;SDS011;67851;51.354;7.744;2024-01-11T10:31:57;32.72;;;16.67;;
78555;SDS011;67851;51.354;7.744;2024-01-11T10:34:24;33.60;;;17.55;;
78555;SDS011;67851;51.354;7.744;2024-01-11T10:36:50;32.75;;;17.83;;
78555;SDS011;67851;51.354;7.744;2024-01-11T10:39:17;29.13;;;16.95;;
78555;SDS011;67851;51.354;7.744;2024-01-11T10:41:51;35.17;;;18.23;;
78555;SDS011;67851;51.354;7.744;2024-01-11T10:44:18;39.28;;;18.48;;
78555;SDS011;67851;51.354;7.744;2024-01-11T10:46:47;37.63;;;19.98;;
78555;SDS011;67851;51.354;7.744;2024-01-11T10:49:16;40.53;;;20.02;;
78555;SDS011;67851;51.354;7.744;2024-01-11T10:52:02;37.42;;;19.52;;
78555;SDS011;67851;51.354;7.744;2024-01-11T10:54:34;32.38;;;17.90;;
78555;SDS011;67851;51.354;7.744;2024-01-11T10:57:01;32.75;;;18.95;;
78555;SDS011;67851;51.354;7.744;2024-01-11T10:59:29;36.08;;;19.58;;
78555;SDS011;67851;51.354;7.744;2024-01-11T11:01:57;32.95;;;17.95;;
78555;SDS011;67851;51.354;7.744;2024-01-11T11:04:25;32.72;;;19.02;;
78555;SDS011;67851;51.354;7.744;2024-01-11T11:06:54;32.88;;;18.92;;
78555;SDS011;67851;51.354;7.744;2024-01-11T11:09:25;39.03;;;18.58;;
78555;SDS011;67851;51.354;7.744;2024-01-11T11:11:55;31.20;;;17.17;;
78555;SDS011;67851;51.354;7.744;2024-01-11T11:14:22;33.97;;;18.17;;
78555;SDS011;67851;51.354;7.744;2024-01-11T11:16:51;35.83;;;18.52;;
78555;SDS011;67851;51.354;7.744;2024-01-11T11:19:21;36.15;;;18.95;;
78555;SDS011;67851;51.354;7.744;2024-01-11T11:21:48;33.70;;;18.20;;
78555;SDS011;67851;51.354;7.744;2024-01-11T11:24:15;31.13;;;18.23;;
78555;SDS011;67851;51.354;7.744;2024-01-11T11:26:45;34.80;;;18.65;;
78555;SDS011;67851;51.354;7.744;2024-01-11T11:29:14;30.50;;;17.08;;
78555;SDS011;67851;51.354;7.744;2024-01-11T11:31:42;30.00;;;15.27;;
78555;SDS011;67851;51.354;7.744;2024-01-11T11:34:13;29.92;;;16.17;;
78555;SDS011;67851;51.354;7.744;2024-01-11T11:36:40;25.60;;;15.38;;
78555;SDS011;67851;51.354;7.744;2024-01-11T11:39:09;32.92;;;15.80;;
78555;SDS011;67851;51.354;7.744;2024-01-11T11:41:39;28.48;;;16.38;;
78555;SDS011;67851;51.354;7.744;2024-01-11T11:44:06;29.23;;;16.42;;
78555;SDS011;67851;51.354;7.744;2024-01-11T11:46:33;30.88;;;18.13;;
78555;SDS011;67851;51.354;7.744;2024-01-11T11:49:00;29.98;;;17.27;;
78555;SDS011;67851;51.354;7.744;2024-01-11T11:51:27;30.92;;;18.65;;
78555;SDS011;67851;51.354;7.744;2024-01-11T11:53:56;31.77;;;17.92;;
78555;SDS011;67851;51.354;7.744;2024-01-11T11:56:23;29.75;;;17.48;;
78555;SDS011;67851;51.354;7.744;2024-01-11T11:58:51;34.22;;;17.60;;
78555;SDS011;67851;51.354;7.744;2024-01-11T12:01:21;40.33;;;21.48;;
78555;SDS011;67851;51.354;7.744;2024-01-11T12:03:47;37.65;;;21.00;;
78555;SDS011;67851;51.354;7.744;2024-01-11T12:06:18;39.80;;;21.55;;
78555;SDS011;67851;51.354;7.744;2024-01-11T12:08:47;34.63;;;19.02;;
78555;SDS011;67851;51.354;7.744;2024-01-11T12:11:17;36.38;;;19.15;;
78555;SDS011;67851;51.354;7.744;2024-01-11T12:13:50;35.60;;;20.95;;
78555;SDS011;67851;51.354;7.744;2024-01-11T12:16:22;31.48;;;17.15;;
78555;SDS011;67851;51.354;7.744;2024-01-11T12:18:51;32.55;;;17.05;;
78555;SDS011;67851;51.354;7.744;2024-01-11T12:21:19;29.70;;;16.77;;
78555;SDS011;67851;51.354;7.744;2024-01-11T12:23:46;35.42;;;19.15;;
78555;SDS011;67851;51.354;7.744;2024-01-11T12:26:16;33.88;;;17.38;;
78555;SDS011;67851;51.354;7.744;2024-01-11T12:28:49;32.10;;;17.15;;
78555;SDS011;67851;51.354;7.744;2024-01-11T12:31:17;32.88;;;16.48;;
78555;SDS011;67851;51.354;7.744;2024-01-11T12:33:45;33.47;;;16.35;;
78555;SDS011;67851;51.354;7.744;2024-01-11T12:36:14;33.55;;;16.95;;
78555;SDS011;67851;51.354;7.744;2024-01-11T12:38:48;37.63;;;18.75;;
78555;SDS011;67851;51.354;7.744;2024-01-11T12:41:19;37.15;;;17.05;;
78555;SDS011;67851;51.354;7.744;2024-01-11T12:43:47;35.80;;;19.38;;
78555;SDS011;67851;51.354;7.744;2024-01-11T12:46:14;36.13;;;18.42;;
78555;SDS011;67851;51.354;7.744;2024-01-11T12:48:41;38.95;;;19.02;;
78555;SDS011;67851;51.354;7.744;2024-01-11T12:51:08;40.40;;;19.77;;
78555;SDS011;67851;51.354;7.744;2024-01-11T12:53:46;37.35;;;19.85;;
78555;SDS011;67851;51.354;7.744;2024-01-11T12:56:15;37.35;;;18.35;;
78555;SDS011;67851;51.354;7.744;2024-01-11T12:58:42;42.75;;;20.85;;
78555;SDS011;67851;51.354;7.744;2024-01-11T13:01:09;43.75;;;20.38;;
78555;SDS011;67851;51.354;7.744;2024-01-11T13:03:37;45.38;;;20.50;;
78555;SDS011;67851;51.354;7.744;2024-01-11T13:06:05;43.03;;;20.27;;
78555;SDS011;67851;51.354;7.744;2024-01-11T13:08:32;45.70;;;22.17;;
78555;SDS011;67851;51.354;7.744;2024-01-11T13:11:00;43.05;;;21.80;;
78555;SDS011;67851;51.354;7.744;2024-01-11T13:13:27;41.70;;;20.50;;
78555;SDS011;67851;51.354;7.744;2024-01-11T13:15:56;43.45;;;21.02;;
78555;SDS011;67851;51.354;7.744;2024-01-11T13:18:24;42.83;;;20.00;;
78555;SDS011;67851;51.354;7.744;2024-01-11T13:20:51;43.35;;;20.83;;
78555;SDS011;67851;51.354;7.744;2024-01-11T13:23:18;40.33;;;19.67;;
78555;SDS011;67851;51.354;7.744;2024-01-11T13:25:48;42.05;;;20.30;;
78555;SDS011;67851;51.354;7.744;2024-01-11T13:28:16;43.22;;;20.73;;
78555;SDS011;67851;51.354;7.744;2024-01-11T13:30:43;43.65;;;20.27;;
78555;SDS011;67851;51.354;7.744;2024-01-11T13:33:11;44.00;;;20.13;;
78555;SDS011;67851;51.354;7.744;2024-01-11T13:35:39;40.65;;;19.65;;
78555;SDS011;67851;51.354;7.744;2024-01-11T13:38:06;49.53;;;22.00;;
78555;SDS011;67851;51.354;7.744;2024-01-11T13:40:33;46.65;;;21.83;;
78555;SDS011;67851;51.354;7.744;2024-01-11T13:43:00;48.15;;;22.75;;
78555;SDS011;67851;51.354;7.744;2024-01-11T13:45:29;48.33;;;21.65;;
78555;SDS011;67851;51.354;7.744;2024-01-11T13:47:56;50.17;;;23.42;;
78555;SDS011;67851;51.354;7.744;2024-01-11T13:50:24;58.65;;;26.85;;
78555;SDS011;67851;51.354;7.744;2024-01-11T13:52:51;66.88;;;28.15;;
78555;SDS011;67851;51.354;7.744;2024-01-11T13:55:18;57.55;;;26.52;;
78555;SDS011;67851;51.354;7.744;2024-01-11T13:57:47;51.17;;;23.75;;
78555;SDS011;67851;51.354;7.744;2024-01-11T14:00:14;53.33;;;23.75;;
78555;SDS011;67851;51.354;7.744;2024-01-11T14:02:44;48.90;;;22.45;;
78555;SDS011;67851;51.354;7.744;2024-01-11T14:05:11;47.08;;;19.75;;
78555;SDS011;67851;51.354;7.744;2024-01-11T14:07:40;55.42;;;22.27;;
78555;SDS011;67851;51.354;7.744;2024-01-11T14:10:07;47.78;;;22.73;;
78555;SDS011;67851;51.354;7.744;2024-01-11T14:12:35;43.70;;;21.15;;
78555;SDS011;67851;51.354;7.744;2024-01-11T14:15:05;42.00;;;20.42;;
78555;SDS011;67851;51.354;7.744;2024-01-11T14:17:33;47.90;;;22.17;;
78555;SDS011;67851;51.354;7.744;2024-01-11T14:20:00;45.75;;;21.02;;
78555;SDS011;67851;51.354;7.744;2024-01-11T14:22:28;45.40;;;21.38;;
78555;SDS011;67851;51.354;7.744;2024-01-11T14:24:55;52.38;;;22.70;;